Time;durP1;ratioP1;P1;durP2;ratioP2;P2;SDS_P1;SDS_P2;PMS_P1;PMS_P2;Temp;Humidity;BMP_temperature;BMP_pressure;BME280_temperature;BME280_humidity;BME280_pressure;Samples;Min_cycle;Max_cycle;Signal;HPM_P1;HPM_P2
2023/02/06 00:01:27;;;;;;;10.80;5.10;;;;;;;-3.40;80.86;100404.38;105560;1254;61058;-26
2023/02/06 00:03:56;;;;;;;8.50;5.10;;;;;;;-3.52;81.40;100406.09;105478;1256;61716;-26
2023/02/06 00:06:30;;;;;;;6.20;4.20;;;;;;;-3.34;81.09;100408.09;105483;1253;75091;-26
2023/02/06 00:09:02;;;;;;;6.40;4.30;;;;;;;-3.19;80.19;100413.66;105178;1254;75789;-26
2023/02/06 00:11:30;;;;;;;5.10;3.80;;;;;;;-3.17;79.89;100414.67;105509;1254;73881;-26
2023/02/06 00:13:59;;;;;;;7.00;4.40;;;;;;;-3.20;79.66;100413.48;105662;1253;61091;-26
2023/02/06 00:16:47;;;;;;;8.10;4.30;;;;;;;-3.42;80.77;100416.44;105659;1254;61961;-26
2023/02/06 00:19:17;;;;;;;7.60;4.50;;;;;;;-3.54;81.19;100421.05;105647;1253;75201;-26
2023/02/06 00:21:45;;;;;;;6.00;4.60;;;;;;;-3.60;81.57;100421.40;105656;1259;75698;-26
2023/02/06 00:24:14;;;;;;;5.70;3.70;;;;;;;-3.36;81.08;100419.98;105673;1259;73822;-26
2023/02/06 00:26:43;;;;;;;7.50;4.50;;;;;;;-3.18;79.87;100419.78;105643;1254;61119;-26
2023/02/06 00:29:11;;;;;;;5.70;3.80;;;;;;;-3.37;80.48;100419.82;105694;1258;61813;-26
2023/02/06 00:31:40;;;;;;;7.10;4.40;;;;;;;-3.39;80.80;100423.05;105682;1253;75275;-26
2023/02/06 00:34:08;;;;;;;7.30;4.70;;;;;;;-3.57;81.32;100421.73;105691;1254;74839;-26
2023/02/06 00:36:37;;;;;;;6.90;4.60;;;;;;;-3.76;81.99;100420.89;105713;1254;74208;-26
2023/02/06 00:39:06;;;;;;;4.20;2.90;;;;;;;-3.54;81.57;100425.61;105676;1254;61007;-26
2023/02/06 00:41:37;;;;;;;6.80;4.10;;;;;;;-3.37;80.92;100425.94;105598;1257;61756;-26
2023/02/06 00:44:05;;;;;;;6.60;3.90;;;;;;;-3.51;81.22;100421.53;105672;1254;75515;-26
2023/02/06 00:46:34;;;;;;;7.50;4.70;;;;;;;-3.54;81.31;100416.97;105564;1253;74719;-26
2023/02/06 00:49:03;;;;;;;7.90;3.20;;;;;;;-3.71;81.77;100411.73;105579;1254;74346;-26
2023/02/06 00:51:35;;;;;;;6.60;4.10;;;;;;;-3.85;82.55;100409.20;105666;1253;61105;-26
2023/02/06 00:54:04;;;;;;;6.60;3.20;;;;;;;-3.75;82.57;100414.27;105692;1258;61183;-26
2023/02/06 00:56:33;;;;;;;5.30;3.70;;;;;;;-3.45;81.38;100416.95;105691;1253;75608;-26
2023/02/06 00:59:02;;;;;;;7.40;4.40;;;;;;;-3.52;81.04;100416.96;105658;1253;74602;-25
2023/02/06 01:01:33;;;;;;;9.60;4.80;;;;;;;-3.52;81.23;100421.20;105636;1253;73169;-26
2023/02/06 01:04:01;;;;;;;9.60;4.30;;;;;;;-3.62;81.51;100419.86;105691;1253;61133;-26
2023/02/06 01:06:50;;;;;;;12.30;6.50;;;;;;;-3.74;82.12;100422.09;105589;1253;62154;-24
2023/02/06 01:09:19;;;;;;;5.50;3.30;;;;;;;-3.60;82.04;100425.46;105692;1253;75444;-25
2023/02/06 01:11:47;;;;;;;7.70;3.80;;;;;;;-3.24;80.67;100428.11;105696;1254;75554;-25
2023/02/06 01:14:16;;;;;;;10.60;4.20;;;;;;;-3.30;80.62;100428.46;105595;1254;74304;-25
2023/02/06 01:16:44;;;;;;;13.90;4.20;;;;;;;-3.26;80.19;100432.70;105668;1257;61387;-24
2023/02/06 01:19:14;;;;;;;7.30;3.80;;;;;;;-3.61;81.18;100430.38;105625;1254;61730;-24
2023/02/06 01:21:43;;;;;;;7.30;4.20;;;;;;;-3.71;81.99;100428.69;105636;1253;75450;-24
2023/02/06 01:24:11;;;;;;;5.80;3.70;;;;;;;-3.90;82.75;100432.43;105670;1254;76025;-24
2023/02/06 01:26:40;;;;;;;4.60;3.10;;;;;;;-3.61;82.37;100434.29;105661;1256;74256;-25
2023/02/06 01:29:09;;;;;;;9.90;5.00;;;;;;;-3.19;80.80;100436.09;105688;1256;61196;-25
2023/02/06 01:31:37;;;;;;;7.40;4.70;;;;;;;-3.28;80.37;100435.59;105682;1253;61176;-24
2023/02/06 01:34:06;;;;;;;8.30;4.30;;;;;;;-3.45;80.87;100435.63;105683;1253;75380;-24
2023/02/06 01:36:37;;;;;;;7.40;5.20;;;;;;;-3.60;81.36;100438.02;105719;1253;75770;-25
2023/02/06 01:39:06;;;;;;;5.40;3.20;;;;;;;-3.85;82.33;100436.85;105728;1257;74346;-25
2023/02/06 01:41:35;;;;;;;8.10;3.90;;;;;;;-3.96;82.95;100433.80;105537;1253;61705;-25
2023/02/06 01:44:13;;;;;;;6.40;4.00;;;;;;;-3.64;82.25;100438.03;105605;1257;61772;-25
2023/02/06 01:46:44;;;;;;;5.60;3.70;;;;;;;-3.42;80.98;100442.41;105639;1254;76137;-25
2023/02/06 01:49:24;;;;;;;6.90;4.70;;;;;;;-3.48;80.70;100442.77;105546;1260;74475;-25
2023/02/06 01:51:54;;;;;;;9.90;5.20;;;;;;;-3.52;80.94;100443.96;105510;1253;73198;-25
2023/02/06 01:54:22;;;;;;;7.70;4.60;;;;;;;-3.74;81.80;100443.30;105452;1253;61183;-25
2023/02/06 01:56:53;;;;;;;6.70;3.60;;;;;;;-3.94;82.60;100449.73;105582;1258;61779;-24
2023/02/06 01:59:21;;;;;;;5.30;3.20;;;;;;;-3.94;83.07;100454.51;105590;1261;75631;-25
2023/02/06 02:01:50;;;;;;;6.80;4.00;;;;;;;-3.53;81.85;100457.04;105521;1253;75802;-25
2023/02/06 02:04:20;;;;;;;8.40;5.10;;;;;;;-3.55;81.39;100454.65;105620;1259;74168;-25
2023/02/06 02:07:07;;;;;;;7.30;4.20;;;;;;;-3.71;81.98;100454.83;105396;1253;61148;-25
2023/02/06 02:09:35;;;;;;;6.20;4.60;;;;;;;-3.75;82.09;100459.77;105456;1255;61822;-24
2023/02/06 02:12:07;;;;;;;7.10;4.80;;;;;;;-3.96;82.79;100460.95;105573;1254;75273;-25
2023/02/06 02:14:39;;;;;;;5.80;3.50;;;;;;;-3.80;82.84;100461.12;105605;1257;75884;-24
2023/02/06 02:17:14;;;;;;;7.10;4.80;;;;;;;-3.48;81.60;100466.37;105506;1260;74808;-25
2023/02/06 02:19:48;;;;;;;7.70;4.20;;;;;;;-3.36;80.89;100466.52;105580;1259;61234;-25
2023/02/06 02:22:32;;;;;;;7.40;4.40;;;;;;;-3.56;81.21;100466.72;105464;1257;61820;-25
2023/02/06 02:25:03;;;;;;;7.30;5.20;;;;;;;-3.62;81.78;100465.19;105598;1253;75146;-24
2023/02/06 02:28:17;;;;;;;5.50;3.80;;;;;;;-3.85;82.39;100464.35;105629;1254;75846;-25
2023/02/06 02:31:09;;;;;;;6.50;3.90;;;;;;;-3.78;82.34;100464.68;105531;1254;73688;-25
2023/02/06 02:34:02;;;;;;;6.30;4.00;;;;;;;-3.59;81.66;100465.36;105664;1254;61163;-24
2023/02/06 02:36:45;;;;;;;7.60;3.90;;;;;;;-3.62;81.39;100466.70;105702;1259;61611;-24
2023/02/06 02:39:19;;;;;;;7.00;4.50;;;;;;;-3.82;82.00;100463.99;105613;1253;73278;-25
2023/02/06 02:42:08;;;;;;;9.80;5.40;;;;;;;-3.95;82.44;100466.70;105525;1253;74982;-25
2023/02/06 02:44:51;;;;;;;9.30;5.80;;;;;;;-4.05;83.09;100471.45;105669;1258;74135;-25
2023/02/06 02:47:23;;;;;;;8.40;5.00;;;;;;;-3.64;81.99;100468.42;105635;1260;61292;-25
2023/02/06 02:49:51;;;;;;;9.00;4.70;;;;;;;-3.55;81.21;100469.09;105664;1260;61570;-25
2023/02/06 02:52:20;;;;;;;8.90;5.00;;;;;;;-3.71;81.38;100468.75;105686;1254;75378;-25
2023/02/06 02:54:49;;;;;;;6.40;4.50;;;;;;;-3.77;81.89;100466.71;105695;1253;75837;-25
2023/02/06 02:57:21;;;;;;;8.50;5.30;;;;;;;-4.01;82.73;100467.73;105762;1259;74520;-25
2023/02/06 02:59:49;;;;;;;8.20;4.40;;;;;;;-4.02;83.24;100464.15;105639;1257;62524;-25
2023/02/06 03:02:23;;;;;;;7.60;4.20;;;;;;;-3.68;81.97;100467.73;105638;1259;61660;-24
2023/02/06 03:04:56;;;;;;;7.10;4.50;;;;;;;-3.46;80.73;100463.30;105673;1259;73364;-25
2023/02/06 03:07:29;;;;;;;7.00;4.50;;;;;;;-3.76;81.43;100459.92;105315;1254;75558;-25
2023/02/06 03:10:30;;;;;;;8.70;5.10;;;;;;;-3.83;81.95;100462.81;105603;1253;74325;-25
2023/02/06 03:13:22;;;;;;;7.30;4.70;;;;;;;-4.03;82.72;100466.71;105559;1253;61144;-25
2023/02/06 03:16:00;;;;;;;6.50;4.00;;;;;;;-3.83;82.52;100466.04;105598;1259;61655;-24
2023/02/06 03:18:58;;;;;;;6.90;4.00;;;;;;;-3.48;81.22;100469.25;105608;1254;75573;-25
2023/02/06 03:21:28;;;;;;;6.90;4.40;;;;;;;-3.60;80.87;100471.29;105628;1253;75924;-25
2023/02/06 03:23:58;;;;;;;6.30;4.00;;;;;;;-3.70;81.40;100466.54;105711;1253;74262;-25
2023/02/06 03:26:27;;;;;;;5.50;3.70;;;;;;;-3.83;81.92;100466.88;105646;1253;61646;-25
2023/02/06 03:28:59;;;;;;;6.60;4.70;;;;;;;-4.01;82.61;100464.15;105675;1253;61142;-24
2023/02/06 03:31:35;;;;;;;4.80;3.20;;;;;;;-3.90;82.94;100467.23;105618;1258;75423;-24
2023/02/06 03:34:14;;;;;;;4.60;3.20;;;;;;;-3.47;81.31;100464.48;105230;1254;76233;-25
2023/02/06 03:36:43;;;;;;;8.90;4.80;;;;;;;-3.65;81.17;100463.66;105638;1259;73162;-25
2023/02/06 03:39:11;;;;;;;7.90;4.70;;;;;;;-3.69;81.35;100467.55;105639;1255;61115;-25
2023/02/06 03:41:40;;;;;;;7.70;5.10;;;;;;;-3.88;81.92;100467.55;105685;1258;61586;-24
2023/02/06 03:44:09;;;;;;;5.50;4.00;;;;;;;-4.05;82.76;100471.80;105692;1256;74870;-24
2023/02/06 03:46:40;;;;;;;7.10;3.90;;;;;;;-4.07;83.55;100467.88;105654;1254;74818;-25
2023/02/06 03:49:11;;;;;;;5.50;3.20;;;;;;;-3.63;82.17;100465.53;105361;1253;74107;-25
2023/02/06 03:51:45;;;;;;;5.20;3.50;;;;;;;-3.62;81.69;100465.86;105278;1260;61046;-25
2023/02/06 03:54:16;;;;;;;5.90;4.60;;;;;;;-3.74;82.09;100468.25;105289;1253;61038;-25
2023/02/06 03:56:47;;;;;;;6.40;3.70;;;;;;;-3.90;82.57;100464.84;105295;1254;75317;-25
2023/02/06 03:59:16;;;;;;;7.30;5.00;;;;;;;-4.05;83.34;100469.59;105558;1255;75790;-25
2023/02/06 04:01:46;;;;;;;7.00;4.60;;;;;;;-4.17;83.89;100463.97;105705;1254;74230;-25
2023/02/06 04:04:19;;;;;;;8.20;4.20;;;;;;;-3.86;83.24;100465.52;105617;1254;61168;-25
2023/02/06 04:06:47;;;;;;;7.10;4.20;;;;;;;-3.73;82.23;100462.13;105662;1261;61752;-25
2023/02/06 04:09:16;;;;;;;7.70;4.60;;;;;;;-3.69;81.83;100464.84;105718;1257;75072;-25
2023/02/06 04:11:44;;;;;;;9.40;5.70;;;;;;;-3.74;82.00;100461.30;105680;1254;75566;-25
2023/02/06 04:14:13;;;;;;;16.00;7.20;;;;;;;-4.09;82.90;100461.77;105728;1254;74140;-25
2023/02/06 04:16:42;;;;;;;12.00;5.90;;;;;;;-4.12;83.35;100465.33;105707;1253;61046;-24
2023/02/06 04:19:10;;;;;;;7.70;3.80;;;;;;;-4.04;83.50;100471.45;105696;1258;61761;-25
2023/02/06 04:21:39;;;;;;;9.60;4.50;;;;;;;-3.66;82.19;100473.52;105730;1258;75041;-25
2023/02/06 04:24:07;;;;;;;8.90;5.70;;;;;;;-3.71;81.85;100474.53;105678;1259;75853;-25
2023/02/06 04:26:36;;;;;;;10.50;6.40;;;;;;;-3.73;81.75;100475.02;105537;1258;74236;-25
2023/02/06 04:29:05;;;;;;;9.80;6.30;;;;;;;-3.75;81.83;100477.91;105567;1253;61119;-25
2023/02/06 04:31:33;;;;;;;12.10;6.60;;;;;;;-3.96;82.38;100479.09;105674;1254;61735;-24
2023/02/06 04:34:02;;;;;;;8.00;4.70;;;;;;;-4.11;82.96;100479.58;105688;1254;75208;-24
2023/02/06 04:36:31;;;;;;;9.50;5.20;;;;;;;-3.91;82.63;100477.06;105741;1254;75457;-25
2023/02/06 04:39:00;;;;;;;9.10;5.30;;;;;;;-3.72;81.77;100477.59;105693;1253;73944;-25
2023/02/06 04:41:28;;;;;;;9.10;5.00;;;;;;;-3.68;81.56;100481.99;105663;1253;61051;-25
2023/02/06 04:43:57;;;;;;;9.90;5.20;;;;;;;-3.80;81.78;100488.44;105643;1258;61215;-25
2023/02/06 04:46:25;;;;;;;11.90;6.60;;;;;;;-3.92;82.09;100493.02;105550;1254;74225;-25
2023/02/06 04:48:54;;;;;;;16.90;7.80;;;;;;;-4.09;82.72;100495.02;105395;1254;75799;-25
2023/02/06 04:51:23;;;;;;;7.60;4.80;;;;;;;-3.89;82.43;100499.79;105581;1253;74012;-25
2023/02/06 04:53:51;;;;;;;13.10;6.30;;;;;;;-3.54;81.13;100499.98;105647;1259;61132;-24
2023/02/06 04:56:20;;;;;;;17.60;7.10;;;;;;;-3.64;81.02;100494.73;105727;1259;61650;-25
2023/02/06 04:58:48;;;;;;;10.70;5.90;;;;;;;-3.77;81.33;100498.63;105641;1254;75374;-25
2023/02/06 05:01:17;;;;;;;18.40;8.50;;;;;;;-3.99;82.13;100506.75;105570;1253;75616;-25
2023/02/06 05:03:46;;;;;;;16.70;7.70;;;;;;;-4.05;82.58;100510.46;105518;1254;74217;-25
2023/02/06 05:06:15;;;;;;;9.00;5.40;;;;;;;-4.05;82.72;100515.38;105679;1253;61156;-24
2023/02/06 05:08:43;;;;;;;18.30;8.90;;;;;;;-3.67;81.66;100516.45;105631;1253;61055;-24
2023/02/06 05:11:16;;;;;;;7.40;5.00;;;;;;;-3.40;80.46;100518.84;105597;1253;75263;-25
2023/02/06 05:13:44;;;;;;;8.40;5.50;;;;;;;-3.65;80.43;100517.65;105530;1254;75270;-24
2023/02/06 05:16:14;;;;;;;8.00;4.20;;;;;;;-3.74;81.26;100520.02;105666;1254;74260;-24
2023/02/06 05:18:46;;;;;;;12.40;6.70;;;;;;;-3.88;81.52;100517.11;105561;1254;61987;-25
2023/02/06 05:21:14;;;;;;;10.20;5.50;;;;;;;-4.06;82.28;100520.48;105676;1259;61772;-25
2023/02/06 05:23:43;;;;;;;9.70;6.20;;;;;;;-3.87;82.29;100522.73;105712;1258;75367;-24
2023/02/06 05:26:11;;;;;;;14.10;8.70;;;;;;;-3.56;80.89;100522.58;105670;1254;75646;-25
2023/02/06 05:28:40;;;;;;;10.70;6.50;;;;;;;-3.44;80.48;100522.58;105663;1253;74179;-25
2023/02/06 05:31:09;;;;;;;12.90;5.70;;;;;;;-3.69;80.80;100523.24;105726;1253;61088;-25
2023/02/06 05:33:38;;;;;;;10.50;6.80;;;;;;;-4.02;81.94;100523.02;105703;1258;61340;-25
2023/02/06 05:36:07;;;;;;;14.40;7.90;;;;;;;-4.12;82.44;100522.33;105628;1258;75220;-24
2023/02/06 05:38:36;;;;;;;14.70;7.60;;;;;;;-4.05;82.59;100524.88;105674;1253;75922;-24
2023/02/06 05:41:04;;;;;;;16.60;7.60;;;;;;;-3.77;81.44;100531.05;105704;1254;72995;-25
2023/02/06 05:43:33;;;;;;;20.30;10.40;;;;;;;-3.45;80.34;100529.88;105711;1258;61166;-25
2023/02/06 05:46:01;;;;;;;10.30;5.90;;;;;;;-3.65;80.02;100526.13;105667;1259;61839;-25
2023/02/06 05:48:30;;;;;;;9.50;5.30;;;;;;;-3.89;80.95;100531.70;105682;1253;75335;-24
2023/02/06 05:50:59;;;;;;;8.90;4.90;;;;;;;-4.06;81.60;100534.39;105695;1253;75260;-24
2023/02/06 05:53:27;;;;;;;8.40;5.40;;;;;;;-4.18;82.04;100536.73;105727;1258;74176;-26
2023/02/06 05:55:56;;;;;;;8.40;5.30;;;;;;;-3.92;81.31;100544.77;105705;1259;61093;-25
2023/02/06 05:58:24;;;;;;;7.30;5.10;;;;;;;-3.57;79.85;100542.95;105701;1259;61836;-25
2023/02/06 06:00:53;;;;;;;9.80;5.80;;;;;;;-3.73;79.84;100540.05;105743;1258;74118;-25
2023/02/06 06:03:22;;;;;;;9.80;5.40;;;;;;;-3.98;80.68;100538.13;105703;1259;75994;-25
2023/02/06 06:05:52;;;;;;;8.40;5.30;;;;;;;-4.16;81.18;100538.95;105699;1259;73547;-25
2023/02/06 06:08:20;;;;;;;10.30;6.70;;;;;;;-4.11;81.37;100543.70;105667;1259;61141;-25
2023/02/06 06:10:50;;;;;;;6.60;4.80;;;;;;;-4.08;81.12;100546.60;105366;1253;61278;-25
2023/02/06 06:13:20;;;;;;;8.00;4.40;;;;;;;-3.69;80.00;100554.65;105336;1253;75543;-25
2023/02/06 06:15:50;;;;;;;8.90;4.90;;;;;;;-3.58;79.02;100556.88;105412;1254;75794;-25
2023/02/06 06:18:19;;;;;;;15.40;9.10;;;;;;;-3.64;79.36;100559.75;105240;1261;74424;-25
2023/02/06 06:20:48;;;;;;;11.50;7.00;;;;;;;-3.74;79.43;100560.06;105369;1254;61222;-26
2023/02/06 06:23:16;;;;;;;17.70;12.20;;;;;;;-3.95;80.20;100561.90;105372;1259;61585;-25
2023/02/06 06:25:46;;;;;;;16.90;7.50;;;;;;;-3.95;80.62;100564.77;105502;1254;75208;-25
2023/02/06 06:28:15;;;;;;;11.10;6.60;;;;;;;-4.06;80.79;100562.55;105653;1259;75812;-25
2023/02/06 06:30:43;;;;;;;173.10;70.00;;;;;;;-3.72;79.83;100567.20;105578;1258;73853;-25
2023/02/06 06:33:14;;;;;;;18.10;8.20;;;;;;;-3.42;78.63;100567.58;105503;1253;61133;-25
2023/02/06 06:35:42;;;;;;;8.70;5.50;;;;;;;-3.56;78.68;100565.88;105298;1259;61923;-25
2023/02/06 06:38:11;;;;;;;12.50;7.30;;;;;;;-3.85;79.73;100565.83;105591;1253;75372;-25
2023/02/06 06:40:40;;;;;;;9.50;5.40;;;;;;;-3.94;80.41;100564.10;105644;1254;76303;-25
2023/02/06 06:43:09;;;;;;;9.50;5.00;;;;;;;-4.08;80.99;100565.61;105502;1254;74038;-25
2023/02/06 06:45:38;;;;;;;9.20;5.80;;;;;;;-4.03;81.06;100570.70;105452;1254;62522;-26
2023/02/06 06:48:07;;;;;;;9.30;6.00;;;;;;;-3.44;79.39;100574.70;105512;1254;61860;-25
2023/02/06 06:50:35;;;;;;;11.30;6.40;;;;;;;-3.47;78.70;100571.14;105486;1259;75363;-25
2023/02/06 06:53:04;;;;;;;8.20;5.10;;;;;;;-3.68;79.18;100573.32;105360;1259;76028;-25
2023/02/06 06:55:33;;;;;;;12.30;6.60;;;;;;;-3.87;79.50;100575.16;105538;1253;73883;-26
2023/02/06 06:58:02;;;;;;;20.40;9.20;;;;;;;-4.07;79.94;100575.61;105569;1254;61163;-26
2023/02/06 07:00:30;;;;;;;18.80;9.50;;;;;;;-4.07;80.05;100575.77;105699;1259;61664;-25
2023/02/06 07:02:59;;;;;;;16.60;10.00;;;;;;;-4.04;80.14;100573.58;105588;1254;75490;-26
2023/02/06 07:05:28;;;;;;;14.00;7.90;;;;;;;-3.39;78.62;100575.71;105366;1259;75902;-25
2023/02/06 07:07:57;;;;;;;10.90;6.80;;;;;;;-3.12;77.39;100576.06;105516;1254;73944;-25
2023/02/06 07:10:26;;;;;;;10.50;6.70;;;;;;;-3.04;77.65;100577.93;105485;1254;61071;-25
2023/02/06 07:12:55;;;;;;;10.80;7.30;;;;;;;-3.20;78.49;100576.58;105534;1254;61876;-25
2023/02/06 07:15:24;;;;;;;12.30;6.90;;;;;;;-3.37;79.37;100582.86;105569;1258;75139;-25
2023/02/06 07:17:54;;;;;;;11.20;6.20;;;;;;;-3.45;79.93;100585.56;105382;1259;73806;-25
2023/02/06 07:20:23;;;;;;;12.00;6.10;;;;;;;-3.69;80.67;100585.87;105515;1254;73926;-24
2023/02/06 07:22:52;;;;;;;13.10;6.60;;;;;;;-3.80;81.86;100585.86;105500;1259;61673;-25
2023/02/06 07:25:21;;;;;;;9.90;5.70;;;;;;;-3.25;80.67;100587.63;105668;1253;62716;-25
2023/02/06 07:27:50;;;;;;;9.20;6.50;;;;;;;-3.00;79.81;100582.17;105703;1254;75202;-25
2023/02/06 07:30:19;;;;;;;9.90;6.50;;;;;;;-3.16;79.64;100583.88;105654;1254;75595;-25
2023/02/06 07:32:49;;;;;;;12.10;7.30;;;;;;;-3.21;79.68;100587.11;105657;1254;74252;-25
2023/02/06 07:35:17;;;;;;;9.80;6.60;;;;;;;-3.50;80.31;100588.63;105543;1259;61157;-25
2023/02/06 07:37:46;;;;;;;8.10;5.00;;;;;;;-3.56;81.15;100593.88;105455;1259;61994;-25
2023/02/06 07:40:15;;;;;;;8.50;6.10;;;;;;;-3.50;81.29;100591.67;105628;1254;75148;-26
2023/02/06 07:42:44;;;;;;;8.10;6.00;;;;;;;-3.51;81.85;100591.00;105671;1254;75828;-24
2023/02/06 07:45:21;;;;;;;26.90;13.10;;;;;;;-2.98;80.02;100594.92;105699;1259;73706;-24
2023/02/06 07:47:50;;;;;;;11.00;6.00;;;;;;;-2.76;78.58;100594.05;105524;1259;61186;-26
2023/02/06 07:50:19;;;;;;;10.10;5.60;;;;;;;-3.15;79.00;100596.63;105389;1259;61873;-25
2023/02/06 07:52:48;;;;;;;8.90;5.50;;;;;;;-3.65;79.76;100599.13;105475;1253;74385;-26
2023/02/06 07:55:16;;;;;;;12.20;6.10;;;;;;;-3.51;79.94;100599.66;105517;1253;76051;-26
2023/02/06 07:57:45;;;;;;;11.90;7.30;;;;;;;-3.74;79.58;100603.70;105545;1258;74265;-26
2023/02/06 08:00:15;;;;;;;9.30;6.90;;;;;;;-3.82;80.02;100601.98;105657;1254;61061;-26
2023/02/06 08:02:44;;;;;;;9.30;5.80;;;;;;;-3.52;79.07;100603.39;103937;1254;1902335;-26
2023/02/06 08:05:13;;;;;;;9.60;5.30;;;;;;;-3.23;77.62;100602.75;105341;1258;75341;-26
2023/02/06 08:07:42;;;;;;;5.70;4.30;;;;;;;-3.23;76.92;100604.79;105661;1254;75585;-26
2023/02/06 08:10:10;;;;;;;7.20;4.20;;;;;;;-3.08;76.80;100606.30;105359;1257;72894;-25
2023/02/06 08:12:58;;;;;;;15.00;10.70;;;;;;;-2.97;76.04;100607.83;105310;1254;61195;-25
2023/02/06 08:15:27;;;;;;;13.10;7.50;;;;;;;-3.06;76.54;100609.54;105529;1259;61862;-25
2023/02/06 08:17:56;;;;;;;9.10;5.60;;;;;;;-3.15;77.20;100613.11;105592;1260;74359;-25
2023/02/06 08:20:25;;;;;;;7.50;5.60;;;;;;;-3.46;77.27;100611.21;105726;1254;75823;-25
2023/02/06 08:22:53;;;;;;;7.80;5.60;;;;;;;-3.83;77.10;100619.28;105655;1254;73182;-25
2023/02/06 08:25:22;;;;;;;8.30;5.50;;;;;;;-3.80;77.66;100619.81;105492;1260;61400;-25
2023/02/06 08:27:54;;;;;;;49.20;28.90;;;;;;;-3.50;75.70;100615.11;105494;1253;62198;-25
2023/02/06 08:30:23;;;;;;;15.90;9.80;;;;;;;-3.31;75.42;100621.40;105627;1254;75436;-25
2023/02/06 08:32:52;;;;;;;43.10;23.80;;;;;;;-3.12;75.26;100614.12;105651;1258;75064;-25
2023/02/06 08:35:20;;;;;;;9.20;5.80;;;;;;;-3.16;75.72;100618.55;105536;1259;74038;-25
2023/02/06 08:37:49;;;;;;;11.00;6.60;;;;;;;-3.18;76.44;100619.58;105605;1253;61364;-25
2023/02/06 08:40:19;;;;;;;20.40;12.90;;;;;;;-3.24;75.92;100620.75;105406;1255;61837;-26
2023/02/06 08:42:50;;;;;;;15.30;9.60;;;;;;;-3.30;75.50;100620.06;105480;1253;74510;-25
2023/02/06 08:45:18;;;;;;;9.00;6.00;;;;;;;-3.45;77.11;100620.21;105244;1260;75814;-25
2023/02/06 08:47:47;;;;;;;6.40;4.10;;;;;;;-3.60;78.00;100619.50;105493;1253;74271;-25
2023/02/06 08:50:16;;;;;;;8.00;5.10;;;;;;;-3.23;77.45;100628.05;105443;1254;61098;-25
2023/02/06 08:52:44;;;;;;;5.10;3.50;;;;;;;-2.92;76.19;100629.58;105400;1254;61824;-26
2023/02/06 08:55:13;;;;;;;6.70;4.30;;;;;;;-2.79;74.90;100630.92;105534;1254;74221;-26
2023/02/06 08:57:42;;;;;;;8.40;5.60;;;;;;;-3.00;75.53;100635.88;105433;1260;75841;-26
2023/02/06 09:00:11;;;;;;;7.20;4.80;;;;;;;-2.99;75.68;100631.97;105706;1259;74163;-26
2023/02/06 09:02:40;;;;;;;4.70;3.30;;;;;;;-3.30;75.61;100632.63;105487;1261;61396;-26
2023/02/06 09:05:08;;;;;;;8.80;5.00;;;;;;;-3.20;75.35;100635.71;105696;1259;61189;-26
2023/02/06 09:07:37;;;;;;;7.90;5.30;;;;;;;-3.32;74.87;100632.46;105681;1253;75240;-26
2023/02/06 09:10:06;;;;;;;9.10;5.20;;;;;;;-3.37;74.84;100639.25;105702;1254;74665;-25
2023/02/06 09:12:43;;;;;;;7.20;3.90;;;;;;;-3.44;75.06;100634.81;105647;1254;73967;-25
2023/02/06 09:15:12;;;;;;;8.20;4.50;;;;;;;-3.23;75.44;100643.17;105641;1254;61015;-25
2023/02/06 09:17:44;;;;;;;9.70;4.90;;;;;;;-3.22;75.07;100641.65;105586;1255;61824;-26
2023/02/06 09:20:13;;;;;;;9.00;4.90;;;;;;;-3.33;74.86;100641.80;105375;1255;75528;-26
2023/02/06 09:22:43;;;;;;;8.50;4.30;;;;;;;-3.32;75.49;100639.09;105430;1254;75563;-26
2023/02/06 09:25:12;;;;;;;6.10;3.60;;;;;;;-3.34;75.37;100641.12;105618;1259;72046;-26
2023/02/06 09:27:42;;;;;;;7.00;3.90;;;;;;;-2.95;74.24;100645.39;105465;1253;61064;-26
2023/02/06 09:30:13;;;;;;;6.20;4.20;;;;;;;-2.73;72.74;100639.77;105489;1260;61183;-26
2023/02/06 09:32:42;;;;;;;6.60;4.70;;;;;;;-2.84;71.79;100634.16;105578;1262;74045;-23
2023/02/06 09:35:11;;;;;;;9.00;6.10;;;;;;;-2.62;71.55;100636.34;105712;1259;75821;-24
2023/02/06 09:37:41;;;;;;;5.30;3.40;;;;;;;-2.67;71.11;100637.38;105630;1259;74341;-24
2023/02/06 09:40:11;;;;;;;6.00;3.40;;;;;;;-2.82;71.38;100636.54;105660;1259;61046;-24
2023/02/06 09:42:39;;;;;;;3.70;2.90;;;;;;;-3.00;71.65;100633.32;105231;1260;61282;-25
2023/02/06 09:45:17;;;;;;;3.90;3.10;;;;;;;-2.66;70.33;100628.02;105520;1258;75447;-24
2023/02/06 09:48:16;;;;;;;6.10;4.10;;;;;;;-2.86;70.40;100624.98;105334;1262;75859;-25
2023/02/06 09:51:01;;;;;;;6.40;3.80;;;;;;;-2.46;70.07;100626.62;105660;1259;74531;-25
2023/02/06 09:53:57;;;;;;;6.00;4.70;;;;;;;-2.34;69.46;100622.85;105610;1259;61134;-25
2023/02/06 09:56:38;;;;;;;6.30;4.70;;;;;;;-2.22;68.65;100619.73;105303;1259;61224;-25
2023/02/06 09:59:26;;;;;;;6.50;3.30;;;;;;;-1.95;68.12;100617.25;105673;1258;75265;-25
2023/02/06 10:02:17;;;;;;;4.00;3.00;;;;;;;-2.03;67.25;100609.28;105479;1259;75926;-25
2023/02/06 10:04:56;;;;;;;5.30;3.90;;;;;;;-2.11;67.94;100611.88;105439;1254;72991;-25
2023/02/06 10:07:34;;;;;;;5.50;4.10;;;;;;;-2.18;68.53;100610.55;105578;1260;61145;-25
2023/02/06 10:10:12;;;;;;;7.00;4.00;;;;;;;-2.37;68.78;100614.52;105507;1263;62011;-25
2023/02/06 10:12:44;;;;;;;7.60;4.70;;;;;;;-2.44;69.71;100615.91;105709;1259;75332;-25
2023/02/06 10:15:23;;;;;;;9.20;5.00;;;;;;;-2.20;69.57;100618.20;105616;1259;75567;-25
2023/02/06 10:17:57;;;;;;;5.80;4.10;;;;;;;-2.57;69.61;100615.59;105542;1260;74250;-24
2023/02/06 10:20:39;;;;;;;8.50;5.20;;;;;;;-3.26;71.11;100621.08;105492;1259;61151;-25
2023/02/06 10:23:11;;;;;;;7.40;5.30;;;;;;;-2.81;70.83;100620.05;105451;1261;61647;-25
2023/02/06 10:25:50;;;;;;;10.20;6.30;;;;;;;-2.22;68.59;100617.02;105330;1254;75280;-25
2023/02/06 10:28:26;;;;;;;5.00;3.30;;;;;;;-2.43;68.07;100615.22;105504;1260;75017;-26
2023/02/06 10:31:16;;;;;;;5.00;4.10;;;;;;;-2.07;67.05;100617.66;105292;1262;74505;-26
2023/02/06 10:33:48;;;;;;;4.70;3.50;;;;;;;-2.37;67.54;100611.96;105571;1259;61083;-24
2023/02/06 10:36:48;;;;;;;6.40;3.80;;;;;;;-2.66;67.99;100609.66;105486;1255;61751;-24
2023/02/06 10:39:36;;;;;;;4.60;3.30;;;;;;;-2.60;67.48;100603.86;105516;1259;75320;-24
2023/02/06 10:42:35;;;;;;;5.10;3.70;;;;;;;-2.45;66.67;100606.39;105716;1258;75860;-24
2023/02/06 10:45:23;;;;;;;10.00;6.00;;;;;;;-2.47;66.69;100606.90;105560;1260;74191;-25
2023/02/06 10:47:58;;;;;;;8.20;4.60;;;;;;;-2.87;67.83;100601.54;105460;1254;61305;-25
2023/02/06 10:50:30;;;;;;;7.60;5.00;;;;;;;-2.75;67.25;100599.47;105221;1260;61950;-24
2023/02/06 10:53:03;;;;;;;9.20;3.90;;;;;;;-2.79;67.70;100596.41;105474;1259;74363;-24
2023/02/06 10:55:54;;;;;;;7.40;5.30;;;;;;;-2.24;66.85;100591.16;105247;1254;75855;-25
2023/02/06 10:58:53;;;;;;;5.50;4.20;;;;;;;-2.01;65.61;100592.09;105398;1253;73193;-24
2023/02/06 11:01:22;;;;;;;7.50;4.40;;;;;;;-1.67;64.84;100585.60;105436;1254;61056;-24
2023/02/06 11:04:16;;;;;;;5.70;4.00;;;;;;;-1.69;64.30;100586.45;105251;1260;61138;-25
2023/02/06 11:06:46;;;;;;;4.80;3.80;;;;;;;-1.56;64.46;100586.54;105190;1270;75295;-24
2023/02/06 11:09:14;;;;;;;7.30;4.40;;;;;;;-1.75;64.29;100584.27;105549;1260;75750;-24
2023/02/06 11:11:47;;;;;;;4.90;3.20;;;;;;;-1.71;64.04;100583.23;105517;1260;74158;-24
2023/02/06 11:14:21;;;;;;;4.10;3.10;;;;;;;-1.87;63.25;100583.52;105514;1260;61056;-26
2023/02/06 11:16:52;;;;;;;4.00;2.80;;;;;;;-1.94;64.17;100586.26;105370;1259;61884;-25
2023/02/06 11:19:51;;;;;;;3.50;2.70;;;;;;;-2.01;63.67;100582.73;105244;1254;75433;-24
2023/02/06 11:22:28;;;;;;;4.10;2.70;;;;;;;-2.19;64.26;100580.60;105436;1261;75799;-25
2023/02/06 11:25:06;;;;;;;5.90;4.20;;;;;;;-1.91;64.97;100581.65;105247;1255;74137;-25
2023/02/06 11:27:35;;;;;;;6.30;3.40;;;;;;;-1.78;64.76;100579.20;105309;1260;61256;-25
2023/02/06 11:30:19;;;;;;;5.40;4.10;;;;;;;-2.12;65.02;100577.50;105524;1255;61119;-26
2023/02/06 11:32:50;;;;;;;8.90;4.80;;;;;;;-2.32;66.02;100583.38;105492;1255;75370;-26
2023/02/06 11:35:40;;;;;;;6.50;4.50;;;;;;;-2.41;65.74;100580.34;105180;1255;74905;-26
2023/02/06 11:38:20;;;;;;;10.60;5.60;;;;;;;-2.28;66.03;100580.98;105325;1260;71954;-26